createdAt,value
2023-03-25T00:01:16.706Z,10.95
2023-03-25T00:03:50.625Z,10.50
2023-03-25T00:06:18.413Z,9.52
2023-03-25T00:08:45.976Z,11.82
2023-03-25T00:11:13.392Z,10.55
2023-03-25T00:13:42.130Z,9.35
2023-03-25T00:16:10.355Z,10.57
2023-03-25T00:18:37.895Z,8.95
2023-03-25T00:21:10.853Z,10.18
2023-03-25T00:23:39.497Z,9.80
2023-03-25T00:28:52.668Z,10.60
2023-03-25T00:31:19.937Z,11.88
2023-03-25T00:33:47.205Z,8.98
2023-03-25T00:36:15.283Z,8.60
2023-03-25T00:38:43.471Z,8.20
2023-03-25T00:41:23.236Z,8.25
2023-03-25T00:43:52.730Z,8.73
2023-03-25T00:46:20.755Z,8.93
2023-03-25T00:48:48.189Z,10.30
2023-03-25T00:51:21.514Z,9.82
2023-03-25T00:53:53.151Z,8.93
2023-03-25T00:56:21.657Z,8.88
2023-03-25T00:58:49.244Z,9.98
2023-03-25T01:01:23.365Z,8.73
2023-03-25T01:04:00.707Z,7.07
2023-03-25T01:06:35.615Z,9.60
2023-03-25T01:11:34.963Z,8.00
2023-03-25T01:14:04.265Z,7.90
2023-03-25T01:16:32.162Z,10.70
2023-03-25T01:18:59.449Z,8.32
2023-03-25T01:21:27.066Z,10.52
2023-03-25T01:23:54.432Z,9.02
2023-03-25T01:26:21.737Z,7.35
2023-03-25T01:28:49.135Z,6.15
2023-03-25T01:31:16.438Z,7.78
2023-03-25T01:33:43.812Z,7.72
2023-03-25T01:36:13.032Z,7.65
2023-03-25T01:38:41.631Z,7.97
2023-03-25T01:41:10.109Z,7.22
2023-03-25T01:43:37.503Z,8.57
2023-03-25T01:46:04.925Z,10.27
2023-03-25T01:48:37.143Z,7.28
2023-03-25T01:51:16.721Z,6.97
2023-03-25T01:53:44.776Z,7.57
2023-03-25T01:56:16.607Z,7.13
2023-03-25T01:58:44.581Z,8.40
2023-03-25T02:01:14.125Z,6.97
2023-03-25T02:03:46.568Z,6.85
2023-03-25T02:06:20.861Z,8.73
2023-03-25T02:08:49.114Z,8.75
2023-03-25T02:11:16.745Z,8.93
2023-03-25T02:13:44.081Z,6.47
2023-03-25T02:16:32.993Z,9.05
2023-03-25T02:19:33.038Z,7.60
2023-03-25T02:22:37.600Z,9.00
2023-03-25T02:25:23.048Z,8.13
2023-03-25T02:28:02.511Z,7.53
2023-03-25T02:30:41.545Z,7.28
2023-03-25T02:33:34.312Z,9.65
2023-03-25T02:36:30.157Z,8.43
2023-03-25T02:39:15.809Z,6.47
2023-03-25T02:41:59.983Z,7.55
2023-03-25T02:44:41.068Z,9.25
2023-03-25T02:47:15.010Z,9.90
2023-03-25T02:49:48.161Z,8.82
2023-03-25T02:52:22.154Z,7.88
2023-03-25T02:54:51.868Z,9.80
2023-03-25T02:57:22.794Z,9.10
2023-03-25T02:59:54.155Z,10.38
2023-03-25T03:02:25.736Z,8.75
2023-03-25T03:04:56.716Z,8.23
2023-03-25T03:07:47.085Z,7.75
2023-03-25T03:10:39.969Z,6.85
2023-03-25T03:13:22.377Z,9.80
2023-03-25T03:16:21.975Z,9.85
2023-03-25T03:19:14.394Z,8.23
2023-03-25T03:21:56.251Z,7.03
2023-03-25T03:24:52.637Z,9.55
2023-03-25T03:27:35.410Z,11.32
2023-03-25T03:30:27.259Z,11.40
2023-03-25T03:33:25.437Z,11.00
2023-03-25T03:36:24.470Z,12.70
2023-03-25T03:39:19.945Z,8.32
2023-03-25T03:41:52.555Z,7.97
2023-03-25T03:44:24.906Z,11.32
2023-03-25T03:47:00.391Z,9.50
2023-03-25T03:49:42.967Z,9.68
2023-03-25T03:52:18.670Z,8.95
2023-03-25T03:54:59.618Z,9.88
2023-03-25T03:57:35.773Z,9.35
2023-03-25T04:00:12.822Z,9.57
2023-03-25T04:02:51.379Z,8.55
2023-03-25T04:05:22.723Z,11.57
2023-03-25T04:07:56.935Z,10.00
2023-03-25T04:10:29.399Z,10.52
2023-03-25T04:13:00.476Z,9.43
2023-03-25T04:15:27.792Z,12.30
2023-03-25T04:17:55.110Z,7.45
2023-03-25T04:20:25.685Z,10.65
2023-03-25T04:22:53.748Z,10.05
2023-03-25T04:25:21.709Z,9.32
2023-03-25T04:27:49.435Z,11.50
2023-03-25T04:30:18.047Z,9.35
2023-03-25T04:32:47.078Z,7.78
2023-03-25T04:35:17.013Z,10.80
2023-03-25T04:37:49.044Z,11.35
2023-03-25T04:40:18.848Z,11.13
2023-03-25T04:42:47.432Z,9.75
2023-03-25T04:45:17.002Z,9.48
2023-03-25T04:47:47.309Z,10.85
2023-03-25T04:50:24.681Z,12.82
2023-03-25T04:52:53.422Z,9.75
2023-03-25T04:55:21.778Z,11.18
2023-03-25T04:57:50.862Z,11.75
2023-03-25T05:00:24.353Z,10.50
2023-03-25T05:02:54.638Z,8.85
2023-03-25T05:05:25.042Z,10.82
2023-03-25T05:07:54.934Z,10.10
2023-03-25T05:10:24.586Z,10.10
2023-03-25T05:12:58.313Z,10.70
2023-03-25T05:15:26.501Z,9.70
2023-03-25T05:17:54.001Z,11.05
2023-03-25T05:20:22.494Z,11.77
2023-03-25T05:22:49.886Z,10.10
2023-03-25T05:25:18.317Z,11.15
2023-03-25T05:27:46.682Z,11.88
2023-03-25T05:30:16.077Z,9.68
2023-03-25T05:32:45.862Z,11.07
2023-03-25T05:35:13.476Z,9.93
2023-03-25T05:37:40.811Z,10.95
2023-03-25T05:40:15.082Z,11.43
2023-03-25T05:42:47.018Z,11.73
2023-03-25T05:45:17.257Z,8.70
2023-03-25T05:47:44.686Z,11.52
2023-03-25T05:50:12.328Z,9.38
2023-03-25T05:52:41.797Z,10.18
2023-03-25T05:55:15.689Z,12.35
2023-03-25T05:57:43.201Z,14.05
2023-03-25T06:00:12.780Z,9.45
2023-03-25T06:02:43.225Z,11.20
2023-03-25T06:05:15.560Z,11.43
2023-03-25T06:07:45.784Z,11.32
2023-03-25T06:10:16.510Z,12.57
2023-03-25T06:12:45.612Z,9.77
2023-03-25T06:15:14.934Z,11.98
2023-03-25T06:17:42.574Z,13.20
2023-03-25T06:20:12.707Z,10.43
2023-03-25T06:22:43.019Z,10.13
2023-03-25T06:25:12.440Z,10.50
2023-03-25T06:27:42.746Z,12.20
2023-03-25T06:30:13.373Z,8.52
2023-03-25T06:32:41.317Z,10.07
2023-03-25T06:35:12.029Z,7.07
2023-03-25T06:37:40.016Z,9.57
2023-03-25T06:40:08.018Z,10.98
2023-03-25T06:42:35.397Z,9.23
2023-03-25T06:45:05.034Z,11.30
2023-03-25T06:47:32.354Z,11.25
2023-03-25T06:49:59.729Z,9.55
2023-03-25T06:52:27.022Z,10.88
2023-03-25T06:54:54.294Z,12.98
2023-03-25T06:57:21.708Z,9.68
2023-03-25T06:59:49.650Z,10.23
2023-03-25T07:02:16.953Z,12.00
2023-03-25T07:04:44.288Z,10.82
2023-03-25T07:07:11.590Z,10.57
2023-03-25T07:09:38.845Z,11.77
2023-03-25T07:12:08.815Z,9.02
2023-03-25T07:14:36.381Z,11.77
2023-03-25T07:17:03.674Z,10.10
2023-03-25T07:19:31.323Z,11.68
2023-03-25T07:21:58.620Z,8.82
2023-03-25T07:24:26.170Z,8.57
2023-03-25T07:26:53.488Z,9.75
2023-03-25T07:29:20.922Z,11.27
2023-03-25T07:31:48.224Z,8.27
2023-03-25T07:34:15.660Z,10.88
2023-03-25T07:36:43.034Z,11.90
2023-03-25T07:39:10.421Z,12.70
2023-03-25T07:41:37.725Z,12.35
2023-03-25T07:44:05.198Z,12.25
2023-03-25T07:46:32.505Z,14.27
2023-03-25T07:48:59.833Z,11.52
2023-03-25T07:51:27.218Z,13.77
2023-03-25T07:53:54.534Z,14.45
2023-03-25T07:56:22.008Z,15.30
2023-03-25T07:58:49.772Z,12.48
2023-03-25T08:01:17.067Z,14.32
2023-03-25T08:03:44.477Z,14.35
2023-03-25T08:06:11.976Z,13.95
2023-03-25T08:08:39.275Z,14.70
2023-03-25T08:11:06.902Z,16.60
2023-03-25T08:13:34.347Z,14.73
2023-03-25T08:16:01.709Z,14.70
2023-03-25T08:18:29.150Z,16.40
2023-03-25T08:20:56.394Z,13.55
2023-03-25T08:23:26.721Z,17.77
2023-03-25T08:25:54.555Z,16.33
2023-03-25T08:28:23.195Z,16.15
2023-03-25T08:30:54.966Z,18.92
2023-03-25T08:33:34.617Z,15.30
2023-03-25T08:36:02.613Z,18.23
2023-03-25T08:38:34.787Z,14.50
2023-03-25T08:41:02.726Z,19.30
2023-03-25T08:43:30.034Z,16.33
2023-03-25T08:45:57.356Z,20.08
2023-03-25T08:48:24.893Z,19.33
2023-03-25T08:50:53.213Z,19.33
2023-03-25T08:53:20.543Z,19.85
2023-03-25T08:55:51.214Z,19.45
2023-03-25T08:58:18.748Z,19.33
2023-03-25T09:00:47.084Z,17.08
2023-03-25T09:03:14.353Z,18.15
2023-03-25T09:05:41.736Z,15.82
2023-03-25T09:08:09.699Z,15.20
2023-03-25T09:10:38.121Z,20.58
2023-03-25T09:13:05.898Z,17.20
2023-03-25T09:15:33.565Z,14.63
2023-03-25T09:18:01.124Z,16.25
2023-03-25T09:20:28.488Z,18.52
2023-03-25T09:22:55.757Z,15.05
2023-03-25T09:25:23.367Z,17.48
2023-03-25T09:27:50.989Z,15.40
2023-03-25T09:30:18.744Z,17.67
2023-03-25T09:32:46.255Z,17.20
2023-03-25T09:35:13.640Z,17.75
2023-03-25T09:37:41.102Z,20.10
2023-03-25T09:40:11.383Z,18.45
2023-03-25T09:43:05.979Z,17.25
2023-03-25T09:45:44.629Z,21.00
2023-03-25T09:48:30.255Z,18.05
2023-03-25T09:51:02.703Z,18.85
2023-03-25T09:53:51.371Z,18.55
2023-03-25T09:56:22.827Z,16.75
2023-03-25T09:59:01.251Z,17.25
2023-03-25T10:01:39.990Z,16.15
2023-03-25T10:04:41.316Z,19.05
2023-03-25T10:07:35.550Z,13.95
2023-03-25T10:10:08.613Z,15.90
2023-03-25T10:12:47.509Z,16.85
2023-03-25T10:15:21.465Z,15.40
2023-03-25T10:17:57.944Z,17.35
2023-03-25T10:20:50.649Z,13.27
2023-03-25T10:23:32.971Z,18.40
2023-03-25T10:26:09.592Z,13.20
2023-03-25T10:28:48.904Z,18.65
2023-03-25T10:31:25.365Z,17.15
2023-03-25T10:34:00.015Z,15.15
2023-03-25T10:36:51.614Z,21.20
2023-03-25T10:39:21.948Z,15.55
2023-03-25T10:42:03.879Z,18.95
2023-03-25T10:44:31.222Z,16.77
2023-03-25T10:47:08.803Z,16.90
2023-03-25T10:49:37.243Z,17.45
2023-03-25T10:52:04.815Z,16.83
2023-03-25T10:54:36.870Z,16.25
2023-03-25T10:57:07.887Z,17.30
2023-03-25T10:59:54.918Z,15.73
2023-03-25T11:02:28.981Z,15.95
2023-03-25T11:05:03.138Z,17.65
2023-03-25T11:07:41.813Z,14.52
2023-03-25T11:10:13.782Z,15.90
2023-03-25T11:12:45.342Z,14.20
2023-03-25T11:15:14.340Z,16.83
2023-03-25T11:17:43.140Z,16.92
2023-03-25T11:20:26.193Z,15.65
2023-03-25T11:22:59.072Z,12.73
2023-03-25T11:25:32.710Z,13.52
2023-03-25T11:28:06.100Z,20.30
2023-03-25T11:30:33.467Z,14.65
2023-03-25T11:33:06.999Z,14.45
2023-03-25T11:35:42.312Z,14.45
2023-03-25T11:38:32.445Z,14.80
2023-03-25T11:41:00.019Z,15.15
2023-03-25T11:43:40.329Z,13.10
2023-03-25T11:46:16.866Z,14.00
2023-03-25T11:48:50.060Z,15.43
2023-03-25T11:51:30.375Z,12.32
2023-03-25T11:54:06.113Z,16.40
2023-03-25T11:56:39.477Z,18.33
2023-03-25T11:59:42.896Z,16.05
2023-03-25T12:02:31.927Z,15.13
2023-03-25T12:05:03.355Z,16.52
2023-03-25T12:07:40.890Z,18.33
2023-03-25T12:10:15.387Z,16.38
2023-03-25T12:12:49.168Z,19.35
2023-03-25T12:15:45.914Z,17.23
2023-03-25T12:18:42.092Z,17.63
2023-03-25T12:21:31.052Z,20.15
2023-03-25T12:24:25.976Z,18.02
2023-03-25T12:27:23.984Z,19.65
2023-03-25T12:30:04.088Z,20.45
2023-03-25T12:33:00.132Z,21.42
2023-03-25T12:35:36.760Z,20.27
2023-03-25T12:38:04.145Z,19.60
2023-03-25T12:40:51.128Z,19.98
2023-03-25T12:43:37.525Z,21.00
2023-03-25T12:46:26.799Z,21.30
2023-03-25T12:48:56.860Z,22.20
2023-03-25T12:51:29.993Z,21.98
2023-03-25T12:54:17.208Z,18.65
2023-03-25T12:57:09.258Z,20.27
2023-03-25T12:59:54.542Z,20.02
2023-03-25T13:02:52.640Z,18.83
2023-03-25T13:05:23.394Z,14.52
2023-03-25T13:08:07.358Z,17.20
2023-03-25T13:10:38.459Z,17.80
2023-03-25T13:13:19.621Z,19.02
2023-03-25T13:15:52.914Z,20.73
2023-03-25T13:18:30.969Z,16.13
2023-03-25T13:21:38.115Z,17.00
2023-03-25T13:24:49.703Z,17.38
2023-03-25T13:27:17.365Z,16.58
2023-03-25T13:29:51.290Z,16.55
2023-03-25T13:32:39.644Z,12.73
2023-03-25T13:35:41.700Z,14.63
2023-03-25T13:38:28.600Z,16.13
2023-03-25T13:41:14.732Z,14.57
2023-03-25T13:43:58.045Z,20.85
2023-03-25T13:46:36.815Z,21.27
2023-03-25T13:49:18.593Z,18.20
2023-03-25T13:51:45.889Z,17.98
2023-03-25T13:54:30.355Z,22.42
2023-03-25T13:57:03.651Z,18.98
2023-03-25T14:00:25.312Z,23.08
2023-03-25T14:03:07.346Z,22.80
2023-03-25T14:06:11.561Z,20.25
2023-03-25T14:08:50.964Z,22.10
2023-03-25T14:11:24.690Z,19.08
2023-03-25T14:14:01.941Z,21.63
2023-03-25T14:16:39.341Z,20.55
2023-03-25T14:19:17.879Z,22.35
2023-03-25T14:21:49.576Z,22.00
2023-03-25T14:24:18.251Z,26.27
2023-03-25T14:26:55.388Z,27.73
2023-03-25T14:29:43.563Z,25.73
2023-03-25T14:32:35.374Z,25.23
2023-03-25T14:35:33.806Z,22.30
2023-03-25T14:38:10.578Z,28.65
2023-03-25T14:41:01.181Z,28.10
2023-03-25T14:43:36.252Z,26.98
2023-03-25T14:46:19.095Z,20.98
2023-03-25T14:49:09.182Z,21.85
2023-03-25T14:51:41.125Z,23.63
2023-03-25T14:54:32.272Z,21.35
2023-03-25T14:57:24.459Z,22.55
2023-03-25T14:59:56.220Z,18.50
2023-03-25T15:02:28.905Z,21.60
2023-03-25T15:05:03.997Z,22.33
2023-03-25T15:08:04.427Z,18.63
2023-03-25T15:10:38.305Z,18.85
2023-03-25T15:13:21.757Z,18.58
2023-03-25T15:15:50.723Z,17.48
2023-03-25T15:18:36.583Z,16.08
2023-03-25T15:21:09.704Z,18.23
2023-03-25T15:23:40.085Z,17.40
2023-03-25T15:26:14.958Z,16.08
2023-03-25T15:28:51.595Z,20.48
2023-03-25T15:31:41.678Z,18.65
2023-03-25T15:34:33.575Z,21.17
2023-03-25T15:37:46.672Z,16.15
2023-03-25T15:40:41.038Z,18.77
2023-03-25T15:43:36.283Z,17.42
2023-03-25T15:46:27.574Z,16.50
2023-03-25T15:49:19.265Z,14.48
2023-03-25T15:51:52.693Z,15.18
2023-03-25T15:54:32.511Z,18.50
2023-03-25T15:57:26.364Z,15.27
2023-03-25T16:00:14.898Z,17.48
2023-03-25T16:02:51.170Z,16.58
2023-03-25T16:05:20.730Z,17.02
2023-03-25T16:07:49.009Z,16.17
2023-03-25T16:10:36.308Z,14.65
2023-03-25T16:13:24.151Z,16.95
2023-03-25T16:15:58.702Z,14.98
2023-03-25T16:18:26.829Z,15.90
2023-03-25T16:21:00.948Z,16.95
2023-03-25T16:23:29.869Z,13.98
2023-03-25T16:25:57.320Z,13.85
2023-03-25T16:28:29.089Z,15.90
2023-03-25T16:30:56.813Z,17.33
2023-03-25T16:33:30.885Z,17.73
2023-03-25T16:36:09.069Z,17.52
2023-03-25T16:38:36.790Z,17.48
2023-03-25T16:41:25.315Z,17.38
2023-03-25T16:43:54.916Z,14.45
2023-03-25T16:46:23.601Z,16.17
2023-03-25T16:48:54.928Z,16.20
2023-03-25T16:51:28.997Z,14.50
2023-03-25T16:54:00.823Z,17.45
2023-03-25T16:56:33.262Z,17.42
2023-03-25T16:59:22.738Z,18.05
2023-03-25T17:01:59.114Z,15.80
2023-03-25T17:04:41.872Z,16.65
2023-03-25T17:07:14.571Z,15.85
2023-03-25T17:09:44.147Z,15.00
2023-03-25T17:12:17.157Z,15.18
2023-03-25T17:14:47.628Z,17.17
2023-03-25T17:17:47.151Z,16.77
2023-03-25T17:20:21.267Z,18.23
2023-03-25T17:23:19.105Z,18.17
2023-03-25T17:25:52.652Z,15.10
2023-03-25T17:28:39.351Z,17.83
2023-03-25T17:31:36.522Z,15.77
2023-03-25T17:34:08.613Z,18.55
2023-03-25T17:36:40.383Z,17.08
2023-03-25T17:39:34.976Z,17.25
2023-03-25T17:42:13.235Z,17.88
2023-03-25T17:44:45.460Z,14.05
2023-03-25T17:47:17.732Z,18.35
2023-03-25T17:49:45.304Z,17.85
2023-03-25T17:52:12.768Z,17.55
2023-03-25T17:54:40.099Z,15.00
2023-03-25T17:57:14.318Z,19.35
2023-03-25T17:59:41.875Z,16.17
2023-03-25T18:02:16.926Z,16.50
2023-03-25T18:04:44.730Z,17.75
2023-03-25T18:07:12.168Z,17.33
2023-03-25T18:09:41.332Z,18.38
2023-03-25T18:12:08.764Z,14.48
2023-03-25T18:14:36.069Z,14.65
2023-03-25T18:17:04.137Z,17.30
2023-03-25T18:19:32.168Z,15.13
2023-03-25T18:22:09.792Z,18.15
2023-03-25T18:24:41.500Z,16.25
2023-03-25T18:27:14.196Z,16.42
2023-03-25T18:29:41.592Z,17.13
2023-03-25T18:32:09.255Z,23.70
2023-03-25T18:34:36.720Z,16.92
2023-03-25T18:37:04.090Z,16.92
2023-03-25T18:39:32.410Z,15.23
2023-03-25T18:41:59.749Z,14.90
2023-03-25T18:44:28.356Z,14.32
2023-03-25T18:46:55.763Z,14.82
2023-03-25T18:49:23.138Z,14.32
2023-03-25T18:51:50.620Z,14.45
2023-03-25T18:54:18.634Z,15.15
2023-03-25T18:56:47.809Z,17.65
2023-03-25T18:59:19.023Z,16.90
2023-03-25T19:01:58.807Z,18.80
2023-03-25T19:04:27.154Z,18.70
2023-03-25T19:06:54.777Z,16.75
2023-03-25T19:09:23.721Z,20.52
2023-03-25T19:11:51.163Z,18.17
2023-03-25T19:14:18.520Z,19.83
2023-03-25T19:16:57.140Z,21.95
2023-03-25T19:19:30.935Z,20.55
2023-03-25T19:21:58.313Z,26.23
2023-03-25T19:24:25.773Z,25.55
2023-03-25T19:26:53.085Z,24.48
2023-03-25T19:29:20.466Z,31.25
2023-03-25T19:31:48.921Z,26.98
2023-03-25T19:34:16.698Z,34.45
2023-03-25T19:36:46.700Z,34.95
2023-03-25T19:39:13.971Z,32.53
2023-03-25T19:41:42.871Z,36.40
2023-03-25T19:44:10.353Z,31.20
2023-03-25T19:46:37.791Z,31.70
2023-03-25T19:49:05.364Z,29.33
2023-03-25T19:51:32.609Z,29.02
2023-03-25T19:53:59.902Z,26.25
2023-03-25T19:56:27.235Z,27.17
2023-03-25T19:58:54.574Z,33.85
2023-03-25T20:01:22.833Z,29.63
2023-03-25T20:03:51.167Z,32.13
2023-03-25T20:06:18.542Z,28.35
2023-03-25T20:08:45.897Z,30.65
2023-03-25T20:11:13.211Z,33.22
2023-03-25T20:13:40.632Z,28.33
2023-03-25T20:16:08.508Z,29.77
2023-03-25T20:18:35.950Z,27.13
2023-03-25T20:21:06.531Z,24.58
2023-03-25T20:23:33.923Z,26.08
2023-03-25T20:26:01.318Z,23.50
2023-03-25T20:28:31.398Z,26.60
2023-03-25T20:30:59.073Z,29.33
2023-03-25T20:33:27.917Z,20.85
2023-03-25T20:35:55.808Z,21.83
2023-03-25T20:38:23.322Z,28.02
2023-03-25T20:40:54.513Z,25.65
2023-03-25T20:43:21.962Z,20.98
2023-03-25T20:45:53.867Z,23.17
2023-03-25T20:48:22.044Z,22.92
2023-03-25T20:50:49.551Z,21.92
2023-03-25T20:53:16.890Z,18.75
2023-03-25T20:55:45.188Z,22.67
2023-03-25T20:58:12.784Z,15.32
2023-03-25T21:00:40.150Z,20.88
2023-03-25T21:03:07.541Z,21.63
2023-03-25T21:05:34.858Z,18.35
2023-03-25T21:08:02.155Z,18.23
2023-03-25T21:10:29.512Z,18.65
2023-03-25T21:12:56.812Z,19.98
2023-03-25T21:15:24.214Z,18.40
2023-03-25T21:17:51.493Z,22.67
2023-03-25T21:20:21.952Z,19.77
2023-03-25T21:22:50.964Z,16.25
2023-03-25T21:25:18.439Z,16.83
2023-03-25T21:27:46.677Z,17.17
2023-03-25T21:30:17.151Z,15.38
2023-03-25T21:32:44.589Z,18.65
2023-03-25T21:35:12.002Z,14.18
2023-03-25T21:37:40.124Z,15.93
2023-03-25T21:40:13.145Z,17.35
2023-03-25T21:42:42.047Z,11.23
2023-03-25T21:45:11.518Z,16.20
2023-03-25T21:47:39.157Z,13.77
2023-03-25T21:50:09.903Z,11.48
2023-03-25T21:52:38.426Z,12.35
2023-03-25T21:55:06.337Z,12.55
2023-03-25T21:57:38.006Z,14.13
2023-03-25T22:00:10.230Z,14.52
2023-03-25T22:02:37.525Z,11.77
2023-03-25T22:05:05.170Z,12.80
2023-03-25T22:07:32.509Z,11.88
2023-03-25T22:09:59.897Z,10.27
2023-03-25T22:12:27.279Z,11.18
2023-03-25T22:14:54.565Z,10.52
2023-03-25T22:17:21.908Z,11.50
2023-03-25T22:19:50.582Z,11.75
2023-03-25T22:22:20.662Z,11.25
2023-03-25T22:24:49.368Z,12.85
2023-03-25T22:27:16.739Z,9.63
2023-03-25T22:29:44.542Z,9.35
2023-03-25T22:32:12.277Z,10.70
2023-03-25T22:34:39.605Z,9.02
2023-03-25T22:37:06.935Z,10.02
2023-03-25T22:39:34.626Z,10.35
2023-03-25T22:42:01.955Z,7.80
2023-03-25T22:44:29.407Z,8.88
2023-03-25T22:46:57.093Z,9.63
2023-03-25T22:49:24.356Z,8.63
2023-03-25T22:51:52.023Z,11.30
2023-03-25T22:54:19.538Z,9.23
2023-03-25T22:56:46.895Z,8.55
2023-03-25T22:59:15.277Z,9.18
2023-03-25T23:01:43.288Z,8.77
2023-03-25T23:04:10.890Z,8.38
2023-03-25T23:06:38.648Z,7.25
2023-03-25T23:09:08.749Z,8.05
2023-03-25T23:11:37.195Z,8.57
2023-03-25T23:14:09.576Z,9.35
2023-03-25T23:16:37.014Z,7.55
2023-03-25T23:19:06.678Z,7.35
2023-03-25T23:21:34.430Z,8.52
2023-03-25T23:24:03.835Z,8.95
2023-03-25T23:26:38.929Z,8.18
2023-03-25T23:29:09.537Z,8.32
2023-03-25T23:31:41.203Z,8.45
2023-03-25T23:34:12.393Z,9.73
2023-03-25T23:36:39.977Z,8.05
2023-03-25T23:39:10.271Z,8.38
2023-03-25T23:41:38.620Z,10.30
2023-03-25T23:44:06.769Z,9.40
2023-03-25T23:46:34.486Z,10.38
2023-03-25T23:49:02.460Z,12.75
2023-03-25T23:51:36.841Z,9.95
2023-03-25T23:54:06.426Z,11.05
2023-03-25T23:56:34.520Z,8.02
2023-03-25T23:59:02.364Z,10.70
